Time;durP1;ratioP1;P1;durP2;ratioP2;P2;SDS_P1;SDS_P2;PMS_P1;PMS_P2;Temp;Humidity;BMP_temperature;BMP_pressure;BME280_temperature;BME280_humidity;BME280_pressure;Samples;Min_cycle;Max_cycle;Signal;HPM_P1;HPM_P2
2021/12/15 00:01:26;;;;;;;30.33;20.95;;;1.60;95.20;;;;;;5000429;28;20122;-67
2021/12/15 00:03:51;;;;;;;32.15;19.73;;;1.60;95.10;;;;;;5001936;28;20028;-67
2021/12/15 00:06:19;;;;;;;34.25;21.10;;;1.70;94.90;;;;;;5002359;28;20030;-67
2021/12/15 00:08:48;;;;;;;32.33;20.73;;;1.60;94.60;;;;;;4994213;28;20115;-67
2021/12/15 00:11:14;;;;;;;31.42;20.95;;;1.50;94.60;;;;;;4995941;28;20046;-67
2021/12/15 00:13:40;;;;;;;30.52;20.88;;;1.50;94.80;;;;;;4999605;28;20491;-67
2021/12/15 00:16:08;;;;;;;29.95;21.67;;;1.50;94.70;;;;;;5003041;28;20411;-66
2021/12/15 00:18:34;;;;;;;32.45;21.63;;;1.50;94.50;;;;;;5002880;28;22301;-67
2021/12/15 00:21:03;;;;;;;29.45;20.40;;;1.40;94.30;;;;;;4998115;28;20035;-67
2021/12/15 00:23:28;;;;;;;33.92;21.27;;;1.40;94.40;;;;;;4993201;28;20034;-66
2021/12/15 00:25:54;;;;;;;31.17;21.38;;;1.30;94.30;;;;;;5001575;28;20029;-66
2021/12/15 00:28:20;;;;;;;32.58;21.52;;;1.30;94.30;;;;;;4999225;28;20032;-67
2021/12/15 00:30:45;;;;;;;36.88;23.13;;;1.30;94.20;;;;;;4996867;28;20048;-66
2021/12/15 00:33:11;;;;;;;31.40;22.13;;;1.30;94.30;;;;;;5001721;28;20066;-66
2021/12/15 00:35:37;;;;;;;35.67;21.13;;;1.20;93.80;;;;;;5000657;28;20060;-66
2021/12/15 00:38:05;;;;;;;32.97;20.50;;;1.10;93.50;;;;;;4996448;28;20027;-66
2021/12/15 00:40:31;;;;;;;29.40;19.33;;;1.00;93.40;;;;;;4998785;28;20440;-66
2021/12/15 00:42:58;;;;;;;29.23;18.65;;;0.90;93.20;;;;;;5000472;28;20189;-67
2021/12/15 00:45:24;;;;;;;27.75;19.10;;;0.90;93.00;;;;;;4999133;28;20018;-67
2021/12/15 00:47:50;;;;;;;29.48;18.23;;;0.70;93.00;;;;;;5001172;28;20470;-65
2021/12/15 00:50:20;;;;;;;27.80;18.48;;;0.70;93.00;;;;;;5001362;28;20064;-66
2021/12/15 00:52:47;;;;;;;27.17;18.95;;;0.60;93.50;;;;;;5000899;28;20026;-65
2021/12/15 00:55:22;;;;;;;28.27;18.88;;;0.60;94.30;;;;;;4997352;28;20037;-65
2021/12/15 00:57:48;;;;;;;29.63;19.42;;;0.50;93.60;;;;;;4999212;28;20397;-64
2021/12/15 01:00:20;;;;;;;28.25;19.65;;;0.50;93.90;;;;;;4999108;28;20033;-65
2021/12/15 01:02:47;;;;;;;32.50;19.52;;;0.40;94.10;;;;;;5001499;28;20083;-65
2021/12/15 01:05:14;;;;;;;32.05;19.65;;;0.50;93.80;;;;;;4996525;28;20037;-65
2021/12/15 01:07:41;;;;;;;34.53;21.67;;;0.50;93.80;;;;;;4998738;28;20026;-65
2021/12/15 01:10:10;;;;;;;36.38;22.40;;;0.40;93.60;;;;;;4997899;28;20074;-65
2021/12/15 01:20:29;;;;;;;31.20;20.33;;;0.10;92.90;;;;;;5000228;28;20467;-65
2021/12/15 01:22:57;;;;;;;28.83;19.60;;;0.00;92.90;;;;;;5002351;28;20045;-65
2021/12/15 01:25:53;;;;;;;24.98;17.73;;;-0.10;92.90;;;;;;5001935;28;20030;-65
2021/12/15 01:28:19;;;;;;;26.75;16.60;;;-0.20;93.20;;;;;;4997100;28;20034;-65
2021/12/15 01:30:46;;;;;;;28.60;18.80;;;-0.20;93.40;;;;;;4995739;28;20191;-65
2021/12/15 01:33:12;;;;;;;29.50;18.92;;;-0.30;93.70;;;;;;4997874;28;20099;-65
2021/12/15 01:35:41;;;;;;;32.85;21.85;;;-0.20;93.60;;;;;;4998400;28;20038;-65
2021/12/15 01:38:07;;;;;;;39.10;22.52;;;-0.30;93.40;;;;;;4999200;28;20038;-65
2021/12/15 01:40:39;;;;;;;34.55;20.85;;;-0.20;92.90;;;;;;4995065;28;20083;-65
2021/12/15 01:43:16;;;;;;;34.63;21.25;;;-0.30;93.00;;;;;;5001423;28;20116;-65
2021/12/15 01:48:30;;;;;;;29.98;19.23;;;-0.30;93.20;;;;;;4998014;28;20032;-65
2021/12/15 01:50:57;;;;;;;30.45;18.55;;;-0.40;93.00;;;;;;4998887;28;20493;-65
2021/12/15 01:53:23;;;;;;;27.92;18.48;;;-0.50;93.00;;;;;;4998865;28;20030;-65
2021/12/15 01:55:49;;;;;;;27.52;17.23;;;-0.50;93.30;;;;;;5000082;28;20387;-65
2021/12/15 01:58:15;;;;;;;28.65;15.52;;;-0.50;93.00;;;;;;4997832;28;20453;-65
2021/12/15 02:00:46;;;;;;;26.65;15.85;;;-0.60;92.60;;;;;;4998490;28;20551;-65
2021/12/15 02:03:11;;;;;;;30.43;18.73;;;-0.70;93.00;;;;;;5004131;28;20030;-65
2021/12/15 02:05:37;;;;;;;29.27;17.70;;;-0.70;93.40;;;;;;4995939;28;20280;-65
2021/12/15 02:08:05;;;;;;;32.38;19.90;;;-0.60;93.60;;;;;;4994821;28;20033;-65
2021/12/15 02:10:34;;;;;;;37.72;21.63;;;-0.60;93.60;;;;;;4997695;28;20875;-65
2021/12/15 02:13:03;;;;;;;44.20;22.88;;;-0.60;94.70;;;;;;4999315;28;20057;-65
2021/12/15 02:15:34;;;;;;;35.65;20.90;;;-0.50;94.60;;;;;;4999114;28;20041;-64
2021/12/15 02:18:05;;;;;;;45.35;23.20;;;-0.50;94.20;;;;;;5000560;28;20495;-65
2021/12/15 02:20:37;;;;;;;48.90;26.50;;;-0.50;93.20;;;;;;5002550;28;20014;-65
2021/12/15 02:23:07;;;;;;;47.80;24.80;;;-0.50;92.60;;;;;;4994501;28;20424;-65
2021/12/15 02:25:33;;;;;;;48.65;23.48;;;-0.60;92.60;;;;;;5000234;28;20042;-65
2021/12/15 02:28:01;;;;;;;47.60;23.08;;;-0.70;92.20;;;;;;4998394;28;20034;-65
2021/12/15 02:30:44;;;;;;;41.88;22.80;;;-0.80;92.50;;;;;;4999531;28;20408;-66
2021/12/15 02:38:41;;;;;;;44.70;21.80;;;-0.90;92.50;;;;;;4996912;28;20049;-65
2021/12/15 02:41:19;;;;;;;42.60;22.02;;;-1.00;92.90;;;;;;4997222;28;20038;-65
2021/12/15 02:43:48;;;;;;;38.70;21.27;;;-0.90;92.80;;;;;;4996967;28;20454;-65
2021/12/15 02:46:13;;;;;;;42.67;21.70;;;-1.00;92.40;;;;;;4998229;28;20556;-65
2021/12/15 02:48:39;;;;;;;37.10;20.80;;;-1.00;92.50;;;;;;4996847;28;20052;-64
2021/12/15 02:51:05;;;;;;;39.05;20.15;;;-1.00;92.80;;;;;;4999665;28;20116;-65
2021/12/15 02:53:31;;;;;;;39.47;20.88;;;-1.10;92.70;;;;;;4996199;28;20042;-66
2021/12/15 02:55:56;;;;;;;38.75;20.35;;;-1.10;92.80;;;;;;5025382;28;20033;-65
2021/12/15 02:58:23;;;;;;;36.28;19.67;;;-1.10;92.90;;;;;;4993419;28;20630;-64
2021/12/15 03:01:00;;;;;;;37.90;20.83;;;-1.10;92.80;;;;;;4999062;28;20063;-64
2021/12/15 03:06:20;;;;;;;35.45;19.48;;;-1.10;92.70;;;;;;4996016;28;20399;-64
2021/12/15 03:09:10;;;;;;;39.75;20.75;;;-1.10;92.70;;;;;;4997566;28;20034;-65
2021/12/15 03:17:05;;;;;;;38.90;20.92;;;-1.20;92.70;;;;;;4992730;28;20053;-64
2021/12/15 03:19:31;;;;;;;36.20;21.45;;;-1.20;92.70;;;;;;4995841;28;20026;-65
2021/12/15 03:21:57;;;;;;;42.42;21.65;;;-1.20;92.70;;;;;;4993923;28;20048;-65
2021/12/15 03:24:26;;;;;;;37.78;20.10;;;-1.20;92.70;;;;;;4997188;28;20944;-65
2021/12/15 03:27:03;;;;;;;42.90;22.48;;;-1.20;92.60;;;;;;4994302;28;20030;-65
2021/12/15 03:36:02;;;;;;;36.58;19.27;;;-1.40;92.50;;;;;;4995049;28;20592;-65
2021/12/15 03:37:56;;;;;;;32.25;18.48;;;-1.50;92.60;;;;;;4998603;28;20476;-65
2021/12/15 03:40:33;;;;;;;37.03;19.40;;;-1.50;92.60;;;;;;4999591;28;20042;-65
2021/12/15 03:43:01;;;;;;;40.17;22.15;;;-1.50;92.80;;;;;;4998173;28;20042;-66
2021/12/15 03:45:37;;;;;;;41.65;23.38;;;-1.60;92.80;;;;;;4997627;28;20030;-65
2021/12/15 03:48:07;;;;;;;35.30;21.67;;;-1.70;93.00;;;;;;5026620;28;20710;-65
2021/12/15 03:50:33;;;;;;;36.58;20.75;;;-1.60;93.60;;;;;;4998323;28;20027;-65
2021/12/15 03:52:59;;;;;;;38.65;23.02;;;-1.50;93.70;;;;;;5002638;28;20030;-65
2021/12/15 03:55:30;;;;;;;36.08;21.20;;;-1.50;93.60;;;;;;4996920;28;20034;-65
2021/12/15 03:57:58;;;;;;;34.83;20.55;;;-1.50;93.40;;;;;;4999298;28;20038;-65
2021/12/15 04:00:28;;;;;;;46.42;30.38;;;-1.50;93.30;;;;;;4998675;28;20042;-65
2021/12/15 04:02:53;;;;;;;49.78;27.30;;;-1.40;93.30;;;;;;4999613;28;20683;-65
2021/12/15 04:05:20;;;;;;;32.75;20.00;;;-1.40;93.50;;;;;;4995825;28;20113;-65
2021/12/15 04:07:48;;;;;;;40.58;23.90;;;-1.30;93.20;;;;;;4995447;28;20038;-65
2021/12/15 04:10:17;;;;;;;35.97;22.08;;;-1.30;92.70;;;;;;4993408;28;20795;-65
2021/12/15 04:12:43;;;;;;;39.17;22.75;;;-1.50;92.40;;;;;;4997097;28;20487;-65
2021/12/15 04:17:56;;;;;;;37.53;21.30;;;-1.60;92.70;;;;;;4996814;28;20559;-65
2021/12/15 04:20:26;;;;;;;31.45;18.40;;;-1.60;92.70;;;;;;4999149;28;20037;-65
2021/12/15 04:22:52;;;;;;;30.48;18.80;;;-1.70;92.70;;;;;;4998545;28;20392;-65
2021/12/15 04:25:29;;;;;;;33.58;18.35;;;-1.60;92.90;;;;;;4993839;28;20026;-65
2021/12/15 04:28:09;;;;;;;34.20;19.42;;;-1.60;92.90;;;;;;4997324;28;20033;-65
2021/12/15 04:30:43;;;;;;;36.17;20.67;;;-1.60;93.00;;;;;;4997347;28;21150;-65
2021/12/15 04:33:17;;;;;;;85.82;41.95;;;-1.50;93.10;;;;;;5002527;28;20022;-65
2021/12/15 04:35:43;;;;;;;179.55;80.53;;;-1.40;93.20;;;;;;5004120;28;20031;-65
2021/12/15 04:38:12;;;;;;;64.93;35.13;;;-1.40;93.40;;;;;;5001824;28;20022;-65
2021/12/15 04:40:39;;;;;;;55.15;29.35;;;-1.30;93.80;;;;;;4996887;28;20039;-65
2021/12/15 04:43:05;;;;;;;50.97;28.17;;;-1.20;93.70;;;;;;5002188;28;20165;-65
2021/12/15 04:45:31;;;;;;;59.35;30.20;;;-1.10;93.50;;;;;;4998033;28;20041;-65
2021/12/15 04:47:57;;;;;;;46.65;26.55;;;-1.20;93.90;;;;;;4999674;28;20026;-65
2021/12/15 04:50:27;;;;;;;68.13;35.28;;;-1.20;94.10;;;;;;5027415;28;20388;-65
2021/12/15 04:52:54;;;;;;;68.82;34.17;;;-1.20;93.50;;;;;;5000940;28;20178;-65
2021/12/15 04:55:21;;;;;;;60.70;29.98;;;-1.20;93.60;;;;;;4994739;28;20018;-65
2021/12/15 04:57:47;;;;;;;60.80;29.55;;;-1.20;93.30;;;;;;5000928;28;20037;-65
2021/12/15 05:00:18;;;;;;;59.67;30.13;;;-1.30;93.10;;;;;;4995767;28;20038;-65
2021/12/15 05:02:44;;;;;;;73.80;36.55;;;-1.30;93.50;;;;;;4998672;28;20029;-65
2021/12/15 05:05:10;;;;;;;39.58;23.40;;;-1.30;93.70;;;;;;4999906;28;22648;-65
2021/12/15 05:07:37;;;;;;;36.72;21.23;;;-1.30;93.20;;;;;;4998748;28;20031;-65
2021/12/15 05:10:06;;;;;;;35.70;19.83;;;-1.30;92.40;;;;;;4994827;28;20038;-65
2021/12/15 05:12:32;;;;;;;42.83;20.23;;;-1.40;92.20;;;;;;4998066;28;20392;-65
2021/12/15 05:14:58;;;;;;;43.47;20.02;;;-1.50;92.50;;;;;;4995296;28;20038;-65
2021/12/15 05:17:23;;;;;;;42.03;20.48;;;-1.50;92.50;;;;;;4999976;28;20034;-65
2021/12/15 05:19:50;;;;;;;46.60;22.27;;;-1.60;93.00;;;;;;4996347;28;20840;-65
2021/12/15 05:22:16;;;;;;;47.28;21.95;;;-1.60;93.30;;;;;;4997097;28;20064;-65
2021/12/15 05:24:43;;;;;;;41.50;22.10;;;-1.70;93.20;;;;;;4995713;28;20117;-65
2021/12/15 05:27:13;;;;;;;52.08;25.75;;;-1.60;93.20;;;;;;5028165;28;20045;-65
2021/12/15 05:29:41;;;;;;;45.95;23.92;;;-1.60;93.40;;;;;;4996596;28;20022;-65
2021/12/15 05:32:09;;;;;;;48.28;27.40;;;-1.50;93.20;;;;;;5000960;28;20032;-65
2021/12/15 05:34:39;;;;;;;48.08;26.02;;;-1.50;93.20;;;;;;4994608;28;20033;-65
2021/12/15 05:37:05;;;;;;;46.10;22.95;;;-1.50;93.20;;;;;;4996942;28;20061;-65
2021/12/15 05:39:32;;;;;;;53.72;23.95;;;-1.50;92.60;;;;;;5001323;28;20033;-65
2021/12/15 05:41:58;;;;;;;49.17;24.42;;;-1.60;92.60;;;;;;4996165;28;20061;-65
2021/12/15 05:44:25;;;;;;;51.58;23.30;;;-1.70;92.60;;;;;;4997159;28;20108;-64
2021/12/15 05:46:53;;;;;;;49.15;22.05;;;-1.80;92.70;;;;;;4998147;28;20034;-65
2021/12/15 05:49:20;;;;;;;50.22;22.63;;;-1.80;92.60;;;;;;4996714;28;20476;-65
2021/12/15 05:51:46;;;;;;;52.47;24.17;;;-1.80;92.40;;;;;;5001525;28;20033;-65
2021/12/15 05:54:12;;;;;;;51.33;24.48;;;-1.90;92.40;;;;;;4991373;28;20050;-65
2021/12/15 05:56:38;;;;;;;46.70;23.88;;;-1.90;93.00;;;;;;4999751;28;20034;-65
2021/12/15 05:59:05;;;;;;;48.92;24.35;;;-1.90;93.10;;;;;;4999118;28;20022;-66
2021/12/15 06:01:32;;;;;;;58.50;23.02;;;-1.90;93.00;;;;;;4994313;28;20041;-65
2021/12/15 06:04:00;;;;;;;54.50;24.10;;;-2.00;92.70;;;;;;4995885;28;20492;-66
2021/12/15 06:06:26;;;;;;;63.70;26.48;;;-2.00;92.90;;;;;;4997214;28;20065;-65
2021/12/15 06:08:51;;;;;;;55.28;26.73;;;-1.90;93.20;;;;;;4997402;28;20042;-65
2021/12/15 06:11:17;;;;;;;54.03;25.13;;;-2.00;92.80;;;;;;4997487;28;20038;-65
2021/12/15 06:13:47;;;;;;;53.20;26.90;;;-2.00;93.20;;;;;;4996625;28;20037;-65
2021/12/15 06:16:14;;;;;;;59.00;29.13;;;-2.00;93.30;;;;;;4997358;28;20053;-67
2021/12/15 06:18:40;;;;;;;65.10;31.67;;;-2.00;93.10;;;;;;4999868;28;20507;-66
2021/12/15 06:21:05;;;;;;;54.38;26.00;;;-2.00;93.20;;;;;;4996249;28;20042;-66
2021/12/15 06:23:31;;;;;;;50.70;26.83;;;-2.10;93.10;;;;;;4995855;28;20030;-66
2021/12/15 06:26:00;;;;;;;50.78;26.85;;;-2.00;93.00;;;;;;4996138;28;20046;-66
2021/12/15 06:28:29;;;;;;;58.47;28.45;;;-2.00;93.00;;;;;;4996017;28;20662;-65
2021/12/15 06:30:56;;;;;;;51.17;25.30;;;-1.90;93.20;;;;;;4997508;28;20029;-67
2021/12/15 06:33:23;;;;;;;56.30;28.13;;;-1.90;92.90;;;;;;4998106;28;20404;-66
2021/12/15 06:35:54;;;;;;;57.10;27.10;;;-1.90;92.60;;;;;;4997253;28;20030;-66
2021/12/15 06:38:26;;;;;;;56.53;27.73;;;-1.90;92.20;;;;;;4998684;28;20045;-64
2021/12/15 06:40:52;;;;;;;65.00;31.23;;;-1.90;92.40;;;;;;4996422;28;20060;-66
2021/12/15 06:43:19;;;;;;;46.72;23.48;;;-1.80;92.50;;;;;;5001268;28;20523;-65
2021/12/15 06:59:23;;;;;;;54.03;26.27;;;-2.00;92.10;;;;;;4996831;28;20549;-65
2021/12/15 07:01:51;;;;;;;52.13;23.92;;;-2.00;91.90;;;;;;4996897;28;20035;-66
2021/12/15 07:04:18;;;;;;;39.47;21.02;;;-2.10;91.90;;;;;;5002462;28;20058;-66
2021/12/15 07:06:45;;;;;;;36.08;18.10;;;-2.10;92.20;;;;;;4999663;28;20026;-65
2021/12/15 07:09:11;;;;;;;29.60;17.05;;;-2.10;92.10;;;;;;5000688;28;20021;-66
2021/12/15 07:11:37;;;;;;;30.88;16.48;;;-2.10;92.10;;;;;;5000830;28;20041;-66
2021/12/15 07:14:03;;;;;;;33.50;17.20;;;-2.10;92.10;;;;;;5000927;28;20080;-66
2021/12/15 07:16:31;;;;;;;27.75;15.75;;;-2.10;92.20;;;;;;5000628;28;20038;-66
2021/12/15 07:19:32;;;;;;;36.25;20.02;;;-2.10;92.10;;;;;;5000921;28;20026;-66
2021/12/15 07:22:05;;;;;;;30.20;13.98;;;-2.10;92.20;;;;;;4995442;28;20456;-66
2021/12/15 07:24:32;;;;;;;;;;;-2.10;92.00;;;;;;5003148;28;20516;-66
2021/12/15 07:26:59;;;;;;;29.65;15.73;;;-2.10;92.10;;;;;;5000302;28;20296;-66
2021/12/15 07:29:29;;;;;;;36.65;19.17;;;-2.10;92.20;;;;;;4997328;28;20038;-65
2021/12/15 07:31:55;;;;;;;53.05;25.50;;;-2.00;92.30;;;;;;5002158;28;20492;-66
2021/12/15 07:34:21;;;;;;;40.47;21.85;;;-1.90;92.50;;;;;;5002202;28;20698;-66
2021/12/15 07:36:47;;;;;;;36.53;20.67;;;-1.90;92.50;;;;;;5002123;28;20104;-66
2021/12/15 07:39:15;;;;;;;38.13;20.52;;;-1.90;92.40;;;;;;5001192;28;20041;-66
2021/12/15 07:41:49;;;;;;;64.95;32.22;;;-1.90;92.50;;;;;;4998070;28;20490;-66
2021/12/15 07:44:15;;;;;;;51.30;26.38;;;-1.90;92.70;;;;;;4996743;28;20050;-66
2021/12/15 07:46:42;;;;;;;87.38;44.97;;;-1.80;93.20;;;;;;5001430;28;20029;-66
2021/12/15 07:49:08;;;;;;;113.63;56.78;;;-1.70;93.40;;;;;;5002603;28;20022;-66
2021/12/15 07:51:34;;;;;;;128.05;60.00;;;-1.50;93.50;;;;;;5004964;28;20072;-66
2021/12/15 07:54:00;;;;;;;89.57;46.42;;;-1.40;93.60;;;;;;4996183;28;20038;-66
2021/12/15 07:56:25;;;;;;;54.40;28.77;;;-1.20;93.70;;;;;;4996545;28;20034;-66
2021/12/15 07:58:51;;;;;;;63.47;34.63;;;-1.10;93.10;;;;;;5025943;28;20479;-66
2021/12/15 08:01:18;;;;;;;66.13;35.17;;;-1.00;92.70;;;;;;4999733;28;20030;-66
2021/12/15 08:03:44;;;;;;;72.70;38.42;;;-0.90;92.80;;;;;;5000576;28;20034;-65
2021/12/15 08:06:10;;;;;;;71.90;39.47;;;-0.80;93.00;;;;;;4998432;28;20038;-66
2021/12/15 08:08:36;;;;;;;66.50;38.25;;;-0.70;92.90;;;;;;4996370;28;20038;-66
2021/12/15 08:11:03;;;;;;;75.80;38.90;;;-0.60;92.90;;;;;;4998659;28;20073;-66
2021/12/15 08:13:34;;;;;;;76.57;41.30;;;-0.50;92.90;;;;;;4997040;28;20033;-65
2021/12/15 08:16:00;;;;;;;74.10;40.60;;;-0.40;92.90;;;;;;4997500;28;20064;-65
2021/12/15 08:18:26;;;;;;;76.75;41.55;;;-0.40;92.90;;;;;;4999485;28;20037;-66
2021/12/15 08:20:52;;;;;;;75.82;41.72;;;-0.30;93.00;;;;;;4999703;28;20069;-66
2021/12/15 08:23:18;;;;;;;86.28;47.60;;;-0.20;93.10;;;;;;5001086;28;20058;-66
2021/12/15 08:25:45;;;;;;;75.75;43.13;;;-0.10;93.10;;;;;;5000633;28;20030;-66
2021/12/15 08:28:12;;;;;;;72.28;40.80;;;-0.10;93.30;;;;;;4994873;28;20040;-66
2021/12/15 08:30:39;;;;;;;69.28;42.75;;;0.00;93.50;;;;;;4994928;28;20046;-66
2021/12/15 08:33:08;;;;;;;76.50;44.65;;;0.00;93.60;;;;;;4996572;28;20044;-66
2021/12/15 08:35:45;;;;;;;84.82;46.88;;;0.10;93.90;;;;;;5000195;28;20117;-66
2021/12/15 08:38:12;;;;;;;78.13;45.85;;;0.10;94.00;;;;;;5002277;28;20536;-65
2021/12/15 08:40:39;;;;;;;80.68;48.22;;;0.20;94.40;;;;;;5001679;28;20046;-66
2021/12/15 08:43:07;;;;;;;81.78;42.13;;;0.30;94.60;;;;;;4999801;28;20049;-66
2021/12/15 08:45:34;;;;;;;67.05;40.90;;;0.30;94.70;;;;;;4999329;28;20030;-66
2021/12/15 08:48:01;;;;;;;72.95;43.78;;;0.40;94.90;;;;;;4996642;28;20038;-66
2021/12/15 08:50:30;;;;;;;66.60;41.97;;;0.50;94.90;;;;;;5004843;28;20045;-66
2021/12/15 08:52:57;;;;;;;69.18;42.92;;;0.50;94.80;;;;;;5000015;28;20025;-66
2021/12/15 08:55:24;;;;;;;69.07;41.58;;;0.50;95.00;;;;;;5000760;28;20084;-66
2021/12/15 08:57:53;;;;;;;68.88;42.00;;;0.60;95.30;;;;;;5003564;28;20030;-66
2021/12/15 09:00:21;;;;;;;62.88;39.58;;;0.70;95.80;;;;;;4998448;28;20033;-66
2021/12/15 09:02:47;;;;;;;63.58;39.50;;;0.80;95.70;;;;;;5000318;28;20157;-65
2021/12/15 09:05:20;;;;;;;69.30;44.40;;;0.90;95.70;;;;;;4999428;28;20574;-65
2021/12/15 09:07:56;;;;;;;73.25;45.20;;;1.00;95.80;;;;;;5015299;28;20520;-65
2021/12/15 09:10:24;;;;;;;67.68;44.30;;;1.20;95.80;;;;;;5000132;28;20343;-65
2021/12/15 09:12:50;;;;;;;68.32;45.08;;;1.20;95.90;;;;;;5003585;28;20045;-65
2021/12/15 09:15:17;;;;;;;79.63;50.00;;;1.40;96.00;;;;;;4995710;28;20034;-65
2021/12/15 09:17:43;;;;;;;92.85;55.03;;;1.50;95.80;;;;;;5003268;28;20387;-65
2021/12/15 09:20:14;;;;;;;91.35;55.25;;;1.60;95.90;;;;;;4997920;28;20049;-65
2021/12/15 09:22:40;;;;;;;92.45;56.05;;;1.80;97.10;;;;;;5001575;28;20025;-65
2021/12/15 09:25:09;;;;;;;92.72;56.40;;;1.80;95.90;;;;;;4995086;28;20066;-65
2021/12/15 09:27:36;;;;;;;78.03;52.78;;;1.90;95.90;;;;;;5004847;28;20034;-65
2021/12/15 09:30:04;;;;;;;73.45;45.83;;;2.00;96.00;;;;;;5006526;28;20034;-65
2021/12/15 09:32:30;;;;;;;49.90;33.08;;;2.00;96.30;;;;;;4996599;28;20045;-65
2021/12/15 09:34:56;;;;;;;41.40;28.35;;;2.10;96.50;;;;;;5001877;28;20665;-65
2021/12/15 09:37:23;;;;;;;48.10;31.02;;;2.20;96.60;;;;;;5002112;28;20608;-65
2021/12/15 09:39:48;;;;;;;45.50;28.92;;;2.20;96.70;;;;;;4998938;28;20033;-66
2021/12/15 09:42:18;;;;;;;40.20;27.00;;;2.30;96.80;;;;;;4996336;28;20022;-66
2021/12/15 09:44:46;;;;;;;43.15;26.08;;;2.30;96.70;;;;;;5002291;28;20033;-67
2021/12/15 09:47:19;;;;;;;37.42;23.75;;;2.40;96.90;;;;;;4999413;28;20116;-66
2021/12/15 10:06:06;;;;;;;27.65;20.83;;;3.10;95.60;;;;;;4994918;28;20044;-66
2021/12/15 10:19:42;;;;;;;27.27;19.83;;;3.50;95.00;;;;;;4998869;28;20045;-66
2021/12/15 10:22:39;;;;;;;27.50;18.85;;;3.50;95.00;;;;;;4995655;28;20028;-67
2021/12/15 10:25:24;;;;;;;28.45;19.40;;;3.50;94.90;;;;;;4997143;28;20034;-67
2021/12/15 10:27:51;;;;;;;28.40;20.13;;;3.60;95.00;;;;;;4997731;28;20026;-67
2021/12/15 10:30:18;;;;;;;26.83;18.40;;;3.60;95.00;;;;;;5000144;28;20034;-67
2021/12/15 10:32:46;;;;;;;26.10;19.40;;;3.60;94.90;;;;;;4995051;28;20664;-64
2021/12/15 10:35:22;;;;;;;24.77;18.60;;;3.60;95.00;;;;;;4994853;28;20041;-68
2021/12/15 10:38:25;;;;;;;27.13;20.23;;;3.60;94.90;;;;;;4998023;28;20151;-67
2021/12/15 10:41:03;;;;;;;25.38;18.50;;;3.50;95.00;;;;;;4995978;28;20043;-67
2021/12/15 10:43:33;;;;;;;28.88;20.23;;;3.50;95.20;;;;;;4996506;28;20081;-67
2021/12/15 10:46:03;;;;;;;29.75;21.23;;;3.60;95.10;;;;;;4995788;28;20080;-67
2021/12/15 10:48:37;;;;;;;32.20;22.88;;;3.50;95.20;;;;;;4999813;28;20022;-67
2021/12/15 10:51:27;;;;;;;32.70;22.60;;;3.50;95.20;;;;;;4997557;28;20072;-67
2021/12/15 10:53:55;;;;;;;37.50;24.88;;;3.50;95.60;;;;;;4995550;28;21000;-67
2021/12/15 10:56:29;;;;;;;36.28;23.98;;;3.40;95.60;;;;;;4995942;28;20125;-67
2021/12/15 10:58:58;;;;;;;36.03;23.60;;;3.50;95.80;;;;;;5000088;28;20034;-67
2021/12/15 11:01:39;;;;;;;34.83;24.13;;;3.50;95.80;;;;;;5000835;28;20648;-67
2021/12/15 11:04:31;;;;;;;33.28;22.40;;;3.70;95.60;;;;;;5002186;28;20072;-67
2021/12/15 11:07:07;;;;;;;31.67;21.48;;;3.80;95.40;;;;;;4995349;28;20041;-67
2021/12/15 11:09:45;;;;;;;30.30;21.20;;;3.80;95.20;;;;;;4999491;28;20023;-68
2021/12/15 11:12:19;;;;;;;31.42;21.02;;;3.90;95.20;;;;;;5001806;28;20555;-67
2021/12/15 11:14:52;;;;;;;33.92;21.55;;;3.90;95.00;;;;;;4992284;28;20033;-67
2021/12/15 11:17:25;;;;;;;29.23;20.60;;;4.00;95.00;;;;;;4998733;28;20477;-67
2021/12/15 11:19:55;;;;;;;31.30;22.40;;;4.00;94.90;;;;;;4993926;28;20026;-67
2021/12/15 11:22:35;;;;;;;29.58;21.83;;;4.10;95.00;;;;;;5000145;28;20018;-67
2021/12/15 11:25:12;;;;;;;33.88;23.45;;;4.20;95.00;;;;;;4999625;28;20109;-67
2021/12/15 11:27:39;;;;;;;42.97;27.63;;;4.20;95.00;;;;;;5000225;28;20029;-67
2021/12/15 11:30:11;;;;;;;49.90;32.10;;;4.30;95.10;;;;;;5001299;28;20547;-65
2021/12/15 11:32:43;;;;;;;37.40;26.50;;;4.40;95.00;;;;;;5002700;28;20040;-65
2021/12/15 11:35:26;;;;;;;33.53;21.73;;;4.40;95.00;;;;;;4999903;28;20719;-68
2021/12/15 11:37:54;;;;;;;30.20;21.17;;;4.40;95.20;;;;;;5002610;28;20088;-67
2021/12/15 11:40:48;;;;;;;30.10;20.98;;;4.40;95.20;;;;;;5003891;28;20388;-67
2021/12/15 11:43:35;;;;;;;25.17;17.77;;;4.40;95.30;;;;;;4997936;28;20046;-67
2021/12/15 11:46:03;;;;;;;22.65;15.85;;;4.50;94.90;;;;;;5002483;28;20759;-67
2021/12/15 11:48:33;;;;;;;20.75;15.15;;;4.50;94.60;;;;;;5002959;28;20042;-67
2021/12/15 11:51:03;;;;;;;22.38;15.43;;;4.50;94.60;;;;;;5008803;28;20476;-67
2021/12/15 11:53:33;;;;;;;20.35;14.93;;;4.60;94.60;;;;;;5004082;28;20456;-67
2021/12/15 11:56:17;;;;;;;22.33;15.27;;;4.60;94.50;;;;;;5007468;28;20029;-67
2021/12/15 11:58:45;;;;;;;30.92;20.73;;;4.70;94.50;;;;;;5004968;28;20033;-67
2021/12/15 12:01:37;;;;;;;24.40;17.48;;;4.70;94.50;;;;;;5005429;28;20034;-67
2021/12/15 12:04:39;;;;;;;;;;;4.70;94.70;;;;;;5003625;28;20511;-64
2021/12/15 12:07:27;;;;;;;20.83;15.63;;;4.70;94.90;;;;;;5004708;28;19913;-67
2021/12/15 12:09:55;;;;;;;22.60;16.98;;;4.70;95.00;;;;;;5005448;28;20041;-67
2021/12/15 12:12:25;;;;;;;24.83;17.02;;;4.70;95.00;;;;;;5004576;28;20030;-67
2021/12/15 12:14:51;;;;;;;22.58;15.23;;;4.80;97.80;;;;;;5008191;28;20030;-66
2021/12/15 12:17:38;;;;;;;23.15;15.48;;;4.80;99.10;;;;;;5003831;28;20056;-67
2021/12/15 12:20:12;;;;;;;21.13;15.55;;;4.80;97.00;;;;;;5002023;28;20532;-67
2021/12/15 12:22:40;;;;;;;22.13;16.48;;;4.80;96.90;;;;;;5003039;28;20044;-67
2021/12/15 12:25:14;;;;;;;24.23;17.42;;;4.80;96.80;;;;;;5000192;28;20037;-66
2021/12/15 12:27:41;;;;;;;21.85;17.00;;;4.80;96.70;;;;;;5004556;28;20486;-67
2021/12/15 12:30:30;;;;;;;26.05;18.92;;;4.90;96.60;;;;;;5008339;28;20029;-67
2021/12/15 12:32:57;;;;;;;25.33;18.38;;;5.00;96.60;;;;;;5003564;28;20767;-67
2021/12/15 12:35:30;;;;;;;27.00;19.42;;;5.00;96.30;;;;;;5008973;28;20087;-64
2021/12/15 12:38:01;;;;;;;24.77;18.85;;;5.00;95.70;;;;;;5001276;28;20077;-65
2021/12/15 12:40:33;;;;;;;27.45;20.40;;;5.00;95.70;;;;;;5004917;28;20396;-65
2021/12/15 12:42:59;;;;;;;;;;;4.90;95.60;;;;;;5002366;28;20042;-65
2021/12/15 12:45:38;;;;;;;33.13;22.55;;;4.90;95.60;;;;;;5007676;28;19919;-64
2021/12/15 12:48:40;;;;;;;34.00;23.00;;;4.90;95.70;;;;;;5004189;28;20016;-65
2021/12/15 12:59:46;;;;;;;32.85;23.92;;;5.10;94.90;;;;;;4999045;28;20033;-67
2021/12/15 13:02:29;;;;;;;35.85;23.48;;;4.90;95.10;;;;;;5003348;28;20053;-67
2021/12/15 13:04:56;;;;;;;30.55;22.45;;;4.80;95.50;;;;;;5001767;28;20069;-67
2021/12/15 13:07:49;;;;;;;32.10;23.40;;;4.90;95.60;;;;;;5003897;28;20030;-67
2021/12/15 13:10:17;;;;;;;31.05;22.45;;;5.00;95.40;;;;;;5001348;28;20061;-67
2021/12/15 13:12:47;;;;;;;30.77;22.23;;;5.10;95.20;;;;;;5004213;28;20030;-65
2021/12/15 13:15:21;;;;;;;31.15;21.17;;;5.20;94.80;;;;;;5001451;28;20112;-64
2021/12/15 13:18:01;;;;;;;28.48;21.25;;;5.30;94.70;;;;;;5000944;28;20030;-64
2021/12/15 13:20:31;;;;;;;30.90;21.45;;;5.30;94.60;;;;;;5003692;28;20152;-64
2021/12/15 13:23:28;;;;;;;30.23;21.58;;;5.40;94.40;;;;;;5002933;28;20048;-65
2021/12/15 13:28:44;;;;;;;29.10;21.75;;;5.50;94.40;;;;;;4998237;28;20081;-65
2021/12/15 13:31:19;;;;;;;30.63;22.27;;;5.50;94.10;;;;;;5001522;28;20041;-65
2021/12/15 13:33:51;;;;;;;31.10;21.92;;;5.40;94.10;;;;;;5004700;28;20044;-65
2021/12/15 13:36:38;;;;;;;27.65;20.83;;;5.40;94.10;;;;;;5000083;28;20532;-65
2021/12/15 13:39:08;;;;;;;28.55;20.90;;;5.50;94.10;;;;;;5004248;28;20034;-65
2021/12/15 13:44:35;;;;;;;30.13;21.15;;;5.60;93.90;;;;;;5011078;28;20045;-65
2021/12/15 13:47:14;;;;;;;28.20;21.45;;;5.90;93.00;;;;;;4998485;28;20029;-65
2021/12/15 13:49:47;;;;;;;30.83;22.33;;;6.20;92.40;;;;;;5001403;28;20100;-65
2021/12/15 13:52:35;;;;;;;37.63;24.23;;;6.40;91.90;;;;;;4999666;28;20116;-65
2021/12/15 13:55:03;;;;;;;38.30;25.38;;;6.60;91.50;;;;;;4998724;28;20029;-65
2021/12/15 13:57:38;;;;;;;39.85;24.35;;;6.60;91.20;;;;;;5002604;28;20036;-65
2021/12/15 14:00:38;;;;;;;38.70;25.33;;;6.60;91.30;;;;;;4999741;28;20033;-65
2021/12/15 14:03:20;;;;;;;37.30;25.33;;;6.60;91.30;;;;;;5001643;28;20021;-65
2021/12/15 14:06:07;;;;;;;39.40;26.92;;;6.50;91.20;;;;;;5003496;28;20025;-65
2021/12/15 14:08:44;;;;;;;41.05;30.38;;;6.50;91.30;;;;;;5002544;28;20065;-65
2021/12/15 14:11:27;;;;;;;33.90;25.35;;;6.40;91.40;;;;;;5003984;28;20092;-65
2021/12/15 14:13:53;;;;;;;30.05;23.42;;;6.20;91.70;;;;;;4999601;28;20019;-65
2021/12/15 14:16:49;;;;;;;30.17;21.13;;;5.90;92.10;;;;;;4997200;28;20050;-65
2021/12/15 14:19:24;;;;;;;29.77;20.80;;;5.80;92.60;;;;;;5000220;28;20122;-64